Time;durP1;ratioP1;P1;durP2;ratioP2;P2;SDS_P1;SDS_P2;PMS_P1;PMS_P2;Temp;Humidity;BMP_temperature;BMP_pressure;BME280_temperature;BME280_humidity;BME280_pressure;Samples;Min_cycle;Max_cycle;Signal;HPM_P1;HPM_P2
2022/04/14 00:00:44;;;;;;;;;;;;;;;17.46;59.67;100013.47;2085233;28;19927;-52
2022/04/14 00:01:45;;;;;;;;;;;;;;;17.47;59.82;100014.38;2084233;28;19916;-52
2022/04/14 00:02:45;;;;;;;;;;;;;;;17.46;59.67;100008.03;2082651;28;19959;-52
2022/04/14 00:03:45;;;;;;;;;;;;;;;17.45;59.75;100011.78;2095606;28;20348;-51
2022/04/14 00:04:46;;;;;;;;;;;;;;;17.46;59.87;100018.94;2096763;27;20161;-52
2022/04/14 00:05:46;;;;;;;;;;;;;;;17.45;59.66;100017.22;2086251;28;20352;-52
2022/04/14 00:06:46;;;;;;;;;;;;;;;17.44;59.62;100015.50;2079309;28;19967;-52
2022/04/14 00:07:47;;;;;;;;;;;;;;;17.44;59.45;100010.06;2078095;28;20556;-51
2022/04/14 00:08:47;;;;;;;;;;;;;;;17.44;59.65;100020.97;2079382;28;19948;-51
2022/04/14 00:09:47;;;;;;;;;;;;;;;17.43;59.64;100013.78;2081399;28;20624;-49
2022/04/14 00:10:48;;;;;;;;;;;;;;;17.44;59.74;100026.41;2082902;28;19926;-50
2022/04/14 00:11:48;;;;;;;;;;;;;;;17.44;59.57;100020.97;2080649;28;20424;-49
2022/04/14 00:12:49;;;;;;;;;;;;;;;17.44;59.58;100023.69;2084928;28;20019;-53
2022/04/14 00:13:49;;;;;;;;;;;;;;;17.44;59.72;100020.06;2080737;28;19920;-51
2022/04/14 00:14:49;;;;;;;;;;;;;;;17.43;59.66;100019.22;2082433;28;19967;-51
2022/04/14 00:15:50;;;;;;;;;;;;;;;17.44;59.52;100026.41;2082367;28;19920;-50
2022/04/14 00:16:50;;;;;;;;;;;;;;;17.43;59.49;100019.22;2083132;28;19925;-53
2022/04/14 00:17:50;;;;;;;;;;;;;;;17.43;59.52;100011.03;2079248;28;20177;-52
2022/04/14 00:18:51;;;;;;;;;;;;;;;17.42;59.68;100020.25;2083845;28;19924;-50
2022/04/14 00:19:51;;;;;;;;;;;;;;;17.42;59.61;100017.50;2085208;28;19920;-50
2022/04/14 00:20:51;;;;;;;;;;;;;;;17.42;59.51;100017.50;2082871;28;19920;-51
2022/04/14 00:21:52;;;;;;;;;;;;;;;17.42;59.71;100012.06;2083274;28;20023;-52
2022/04/14 00:22:52;;;;;;;;;;;;;;;17.42;59.60;100017.50;2093249;28;19920;-51
2022/04/14 00:23:53;;;;;;;;;;;;;;;17.42;59.67;100017.50;2098007;28;20336;-50
2022/04/14 00:24:53;;;;;;;;;;;;;;;17.43;59.60;100015.63;2084907;28;20348;-48
2022/04/14 00:25:53;;;;;;;;;;;;;;;17.42;59.39;100012.06;2080387;28;19928;-52
2022/04/14 00:26:54;;;;;;;;;;;;;;;17.42;59.43;100012.06;2083998;28;20261;-51
2022/04/14 00:27:54;;;;;;;;;;;;;;;17.42;59.52;100012.06;2078745;28;19959;-51
2022/04/14 00:28:54;;;;;;;;;;;;;;;17.41;59.50;100010.31;2094341;28;19947;-51
2022/04/14 00:29:55;;;;;;;;;;;;;;;17.41;59.54;100015.78;2093969;28;20368;-51
2022/04/14 00:30:55;;;;;;;;;;;;;;;17.43;59.48;100021.09;2080639;28;19928;-51
2022/04/14 00:31:55;;;;;;;;;;;;;;;17.43;59.59;100012.91;2079398;28;20319;-54
2022/04/14 00:32:55;;;;;;;;;;;;;;;17.42;59.52;100012.06;2082488;28;19924;-50
2022/04/14 00:33:56;;;;;;;;;;;;;;;17.42;59.40;100008.44;2081637;28;20285;-52
2022/04/14 00:34:56;;;;;;;;;;;;;;;17.42;59.48;100013.91;2081316;28;19920;-52
2022/04/14 00:35:57;;;;;;;;;;;;;;;17.42;59.61;100014.78;2082690;28;19917;-52
2022/04/14 00:36:57;;;;;;;;;;;;;;;17.41;59.44;100015.78;2082093;28;20278;-51
2022/04/14 00:37:57;;;;;;;;;;;;;;;17.42;59.44;100009.34;2085128;28;19928;-51
2022/04/14 00:38:58;;;;;;;;;;;;;;;17.41;59.26;100010.31;2080794;28;19916;-51
2022/04/14 00:39:58;;;;;;;;;;;;;;;17.41;59.27;100007.59;2085639;28;19932;-51
2022/04/14 00:40:59;;;;;;;;;;;;;;;17.41;59.30;100010.31;2081711;28;20957;-51
2022/04/14 00:42:00;;;;;;;;;;;;;;;17.40;59.46;100008.63;2085215;28;19946;-51
2022/04/14 00:43:00;;;;;;;;;;;;;;;17.40;59.21;100018.66;2076808;28;19917;-51
2022/04/14 00:44:00;;;;;;;;;;;;;;;17.40;59.21;100011.34;2082271;28;19920;-48
2022/04/14 00:45:01;;;;;;;;;;;;;;;17.38;59.26;100016.06;2079815;28;19938;-49
2022/04/14 00:46:02;;;;;;;;;;;;;;;17.39;59.31;100012.31;2080562;28;19927;-49
2022/04/14 00:47:03;;;;;;;;;;;;;;;17.41;59.43;100025.81;2085541;28;19931;-48
2022/04/14 00:48:04;;;;;;;;;;;;;;;17.39;59.12;100017.78;2078342;28;20589;-48
2022/04/14 00:49:04;;;;;;;;;;;;;;;17.39;59.33;100023.22;2093399;28;19924;-50
2022/04/14 00:50:05;;;;;;;;;;;;;;;17.39;59.24;100020.50;2096977;28;20736;-52
2022/04/14 00:51:07;;;;;;;;;;;;;;;17.39;59.31;100028.66;2082369;28;19921;-53
2022/04/14 00:52:08;;;;;;;;;;;;;;;17.39;59.05;100022.38;2083827;28;19921;-52
2022/04/14 00:53:09;;;;;;;;;;;;;;;17.39;59.24;100023.22;2078108;28;19921;-50
2022/04/14 00:54:09;;;;;;;;;;;;;;;17.39;59.14;100017.78;2080383;28;20343;-51
2022/04/14 00:55:09;;;;;;;;;;;;;;;17.40;59.12;100026.84;2082182;28;19971;-51
2022/04/14 00:56:10;;;;;;;;;;;;;;;17.39;59.07;100023.22;2082769;28;20456;-52
2022/04/14 00:57:10;;;;;;;;;;;;;;;17.38;59.17;100016.06;2078887;28;19924;-52
2022/04/14 00:58:11;;;;;;;;;;;;;;;17.38;59.29;100010.63;2079975;28;19916;-51
2022/04/14 00:59:11;;;;;;;;;;;;;;;17.39;59.24;100015.03;2081878;28;20495;-49
2022/04/14 01:00:11;;;;;;;;;;;;;;;17.38;59.24;100010.63;2083165;28;19908;-51
2022/04/14 01:01:12;;;;;;;;;;;;;;;17.39;59.13;100009.59;2080727;28;20162;-50
2022/04/14 01:02:12;;;;;;;;;;;;;;;17.38;59.29;100007.88;2080271;28;19960;-52
2022/04/14 01:03:13;;;;;;;;;;;;;;;17.38;59.03;100013.34;2088544;28;19924;-51
2022/04/14 01:04:14;;;;;;;;;;;;;;;17.38;59.22;100012.47;2079627;28;19921;-49
2022/04/14 01:05:15;;;;;;;;;;;;;;;17.37;59.15;100014.34;2083707;28;19923;-49
2022/04/14 01:06:16;;;;;;;;;;;;;;;17.37;59.17;100011.63;2081847;28;20400;-49
2022/04/14 01:07:17;;;;;;;;;;;;;;;17.36;59.18;100010.75;2082720;28;19917;-48
2022/04/14 01:08:17;;;;;;;;;;;;;;;17.37;58.98;100011.63;2082929;28;20680;-49
2022/04/14 01:09:21;;;;;;;;;;;;;;;17.37;59.10;100014.34;2080557;28;20378;-49
2022/04/14 01:10:21;;;;;;;;;;;;;;;17.36;59.14;99999.00;2081673;28;19913;-51
2022/04/14 01:11:22;;;;;;;;;;;;;;;17.36;58.91;100009.88;2085022;28;19920;-52
2022/04/14 01:12:23;;;;;;;;;;;;;;;17.37;59.06;100008.91;2080809;28;19916;-52
2022/04/14 01:13:23;;;;;;;;;;;;;;;17.35;58.92;100000.84;2083376;28;19921;-51
2022/04/14 01:14:31;;;;;;;;;;;;;;;17.37;58.91;100000.72;2013116;28;1931529;-50
2022/04/14 01:15:31;;;;;;;;;;;;;;;17.35;59.07;100009.03;2084050;28;19921;-49
2022/04/14 01:16:31;;;;;;;;;;;;;;;17.36;58.87;100004.44;2084937;28;20013;-52
2022/04/14 01:17:35;;;;;;;;;;;;;;;17.36;59.09;100009.88;2077892;28;20369;-52
2022/04/14 01:18:35;;;;;;;;;;;;;;;17.36;59.05;100012.59;2080681;28;19913;-52
2022/04/14 01:19:36;;;;;;;;;;;;;;;17.35;58.81;100008.19;2082785;28;19923;-53
2022/04/14 01:20:38;;;;;;;;;;;;;;;17.35;58.93;100010.91;2081361;28;19928;-52
2022/04/14 01:21:41;;;;;;;;;;;;;;;17.35;58.80;100016.34;2083964;28;19920;-49
2022/04/14 01:22:53;;;;;;;;;;;;;;;17.34;58.87;100009.16;2082069;28;19920;-49
2022/04/14 01:23:54;;;;;;;;;;;;;;;17.35;58.99;100011.75;2080791;28;19928;-52
2022/04/14 01:24:58;;;;;;;;;;;;;;;17.35;58.96;100010.91;2084476;28;19928;-50
2022/04/14 01:25:58;;;;;;;;;;;;;;;17.34;58.78;100003.72;2081880;28;19952;-49
2022/04/14 01:27:00;;;;;;;;;;;;;;;17.35;58.93;99997.28;2082005;28;19982;-52
2022/04/14 01:28:05;;;;;;;;;;;;;;;17.34;58.95;100003.72;2081550;28;19927;-50
2022/04/14 01:29:05;;;;;;;;;;;;;;;17.36;58.87;100007.16;2081910;28;19923;-49
2022/04/14 01:30:05;;;;;;;;;;;;;;;17.35;58.88;100010.91;2079807;28;19948;-52
2022/04/14 01:31:06;;;;;;;;;;;;;;;17.35;58.78;100006.31;2082342;28;19908;-53
2022/04/14 01:32:06;;;;;;;;;;;;;;;17.35;59.02;100005.44;2078057;28;19959;-52
2022/04/14 01:33:07;;;;;;;;;;;;;;;17.33;58.83;100002.84;2078475;28;19921;-52
2022/04/14 01:34:08;;;;;;;;;;;;;;;17.35;58.88;100005.44;2083863;28;20400;-50
2022/04/14 01:35:08;;;;;;;;;;;;;;;17.33;58.81;99996.56;2082788;28;19916;-51
2022/04/14 01:36:08;;;;;;;;;;;;;;;17.33;58.84;100002.84;2084857;28;19916;-52
2022/04/14 01:37:09;;;;;;;;;;;;;;;17.33;58.78;100002.00;2086576;28;19962;-52
2022/04/14 01:38:09;;;;;;;;;;;;;;;17.33;58.95;99996.56;2098864;27;22258;-53
2022/04/14 01:39:11;;;;;;;;;;;;;;;17.34;58.86;100006.44;2097431;27;19919;-49
2022/04/14 01:40:12;;;;;;;;;;;;;;;17.33;58.69;99996.56;2084271;28;20190;-50
2022/04/14 01:41:12;;;;;;;;;;;;;;;17.32;58.76;100000.25;2083362;28;19996;-49
2022/04/14 01:42:13;;;;;;;;;;;;;;;17.32;58.69;99997.53;2081589;28;19916;-51
2022/04/14 01:43:13;;;;;;;;;;;;;;;17.33;58.61;100002.00;2082348;28;19921;-49
2022/04/14 01:44:14;;;;;;;;;;;;;;;17.32;58.72;99997.53;2082751;28;19916;-49
2022/04/14 01:45:14;;;;;;;;;;;;;;;17.33;58.66;100000.13;2077016;28;19924;-50
2022/04/14 01:46:14;;;;;;;;;;;;;;;17.33;58.56;100002.84;2082287;28;19967;-51
2022/04/14 01:47:15;;;;;;;;;;;;;;;17.34;58.67;100003.72;2081362;28;19956;-51
2022/04/14 01:48:15;;;;;;;;;;;;;;;17.33;58.56;100002.84;2078505;28;20258;-52
2022/04/14 01:49:15;;;;;;;;;;;;;;;17.35;58.74;100000.00;2081333;28;19927;-51
2022/04/14 01:50:16;;;;;;;;;;;;;;;17.34;58.59;99998.25;2082722;28;19958;-54
2022/04/14 01:51:16;;;;;;;;;;;;;;;17.34;58.79;99999.16;2077882;28;19924;-51
2022/04/14 01:52:18;;;;;;;;;;;;;;;17.34;58.61;99992.81;2084045;28;19923;-51
2022/04/14 01:53:18;;;;;;;;;;;;;;;17.35;58.57;99995.41;2083185;28;20246;-49
2022/04/14 01:54:18;;;;;;;;;;;;;;;17.36;58.41;99999.00;2081149;28;19926;-50
2022/04/14 01:55:19;;;;;;;;;;;;;;;17.36;58.47;99996.25;2081526;28;19920;-50
2022/04/14 01:56:21;;;;;;;;;;;;;;;17.37;58.64;99992.56;2083150;28;20010;-52
2022/04/14 01:57:21;;;;;;;;;;;;;;;17.38;58.49;99998.84;2082232;28;19917;-52
2022/04/14 01:58:22;;;;;;;;;;;;;;;17.38;58.37;99998.84;2079930;28;19928;-51
2022/04/14 01:59:22;;;;;;;;;;;;;;;17.39;58.52;99992.38;2085298;28;19916;-49
2022/04/14 02:00:22;;;;;;;;;;;;;;;17.38;58.49;99994.25;2081618;28;19917;-51
2022/04/14 02:01:23;;;;;;;;;;;;;;;17.40;58.62;99995.00;2084471;28;20027;-52
2022/04/14 02:02:24;;;;;;;;;;;;;;;17.40;58.40;99992.25;2083488;28;20379;-53
2022/04/14 02:03:24;;;;;;;;;;;;;;;17.38;58.37;99994.25;2081867;28;19967;-53
2022/04/14 02:04:25;;;;;;;;;;;;;;;17.41;58.53;99993.13;2082689;28;19917;-49
2022/04/14 02:05:25;;;;;;;;;;;;;;;17.40;58.55;99989.53;2079780;28;19934;-49
2022/04/14 02:06:26;;;;;;;;;;;;;;;17.39;58.36;99990.53;2077067;28;19913;-50
2022/04/14 02:07:26;;;;;;;;;;;;;;;17.37;58.66;99989.84;2085098;28;20391;-53
2022/04/14 02:08:26;;;;;;;;;;;;;;;17.38;58.37;99991.53;2083590;28;19912;-53
2022/04/14 02:09:27;;;;;;;;;;;;;;;17.37;58.52;99992.56;2082948;28;19924;-52
2022/04/14 02:10:27;;;;;;;;;;;;;;;17.38;58.38;99986.09;2083554;28;19956;-51
2022/04/14 02:11:28;;;;;;;;;;;;;;;17.37;58.50;99989.84;2081745;28;19924;-53
2022/04/14 02:12:29;;;;;;;;;;;;;;;17.36;58.50;99991.66;2082957;28;19924;-52
2022/04/14 02:13:32;;;;;;;;;;;;;;;17.36;58.40;99986.22;2079572;28;19921;-53
2022/04/14 02:14:33;;;;;;;;;;;;;;;17.36;58.50;99990.81;2079896;28;20017;-52
2022/04/14 02:15:33;;;;;;;;;;;;;;;17.36;58.68;99985.38;2100238;28;20049;-51
2022/04/14 02:16:33;;;;;;;;;;;;;;;17.36;58.61;99990.81;2091212;28;19923;-52
2022/04/14 02:17:34;;;;;;;;;;;;;;;17.35;58.57;99986.38;2081252;28;19920;-49
2022/04/14 02:18:34;;;;;;;;;;;;;;;17.36;58.72;99990.81;2081653;28;19924;-50
2022/04/14 02:19:34;;;;;;;;;;;;;;;17.35;58.63;99986.38;2082253;28;19928;-53
2022/04/14 02:20:35;;;;;;;;;;;;;;;17.34;58.74;99987.38;2081507;28;20322;-52
2022/04/14 02:21:36;;;;;;;;;;;;;;;17.34;58.51;99988.25;2082019;28;19913;-49
2022/04/14 02:22:42;;;;;;;;;;;;;;;17.36;58.61;99985.38;2079111;28;19995;-51
2022/04/14 02:23:42;;;;;;;;;;;;;;;17.35;58.75;99983.66;2084292;28;20270;-51
2022/04/14 02:24:43;;;;;;;;;;;;;;;17.36;58.68;99993.53;2082038;28;19931;-51
2022/04/14 02:25:43;;;;;;;;;;;;;;;17.36;58.58;99985.38;2078658;28;19928;-52
2022/04/14 02:26:43;;;;;;;;;;;;;;;17.35;58.72;99984.50;2081947;28;20285;-52
2022/04/14 02:27:44;;;;;;;;;;;;;;;17.35;58.69;99983.66;2078902;28;19921;-51
2022/04/14 02:28:44;;;;;;;;;;;;;;;17.35;58.48;99989.97;2080794;28;20359;-50
2022/04/14 02:29:45;;;;;;;;;;;;;;;17.35;58.72;99978.22;2083762;28;20264;-53
2022/04/14 02:30:45;;;;;;;;;;;;;;;17.36;58.63;99979.91;2079120;28;19928;-51
2022/04/14 02:31:46;;;;;;;;;;;;;;;17.34;58.56;99982.81;2076448;28;19920;-49
2022/04/14 02:32:46;;;;;;;;;;;;;;;17.35;58.38;99978.22;2083889;28;19928;-51
2022/04/14 02:33:46;;;;;;;;;;;;;;;17.33;58.62;99972.88;2080262;28;20373;-52
2022/04/14 02:34:47;;;;;;;;;;;;;;;17.33;58.38;99975.63;2082685;28;19924;-51
2022/04/14 02:35:47;;;;;;;;;;;;;;;17.34;58.55;99982.81;2080486;28;19921;-51
2022/04/14 02:36:48;;;;;;;;;;;;;;;17.34;58.41;99984.63;2081839;28;19924;-50
2022/04/14 02:37:48;;;;;;;;;;;;;;;17.33;58.62;99981.06;2077965;28;19912;-52
2022/04/14 02:38:48;;;;;;;;;;;;;;;17.33;58.36;99980.19;2081484;28;20369;-50
2022/04/14 02:39:49;;;;;;;;;;;;;;;17.33;58.32;99982.94;2079366;28;19913;-50
2022/04/14 02:40:49;;;;;;;;;;;;;;;17.33;58.31;99980.19;2080593;28;20223;-52
2022/04/14 02:41:50;;;;;;;;;;;;;;;17.33;58.29;99980.19;2079855;28;19931;-51
2022/04/14 02:42:53;;;;;;;;;;;;;;;17.31;58.43;99982.19;2074298;28;19929;-49
2022/04/14 02:43:54;;;;;;;;;;;;;;;17.32;58.20;99983.91;2082291;28;19920;-49
2022/04/14 02:44:54;;;;;;;;;;;;;;;17.32;58.26;99978.47;2078516;28;19965;-50
2022/04/14 02:45:54;;;;;;;;;;;;;;;17.32;58.45;99978.47;2083281;28;19987;-51
2022/04/14 02:46:55;;;;;;;;;;;;;;;17.31;58.38;99982.19;2083304;28;20371;-53
2022/04/14 02:47:55;;;;;;;;;;;;;;;17.31;58.45;99976.75;2083483;28;19943;-51
2022/04/14 02:48:55;;;;;;;;;;;;;;;17.31;58.39;99982.19;2081983;28;19931;-49
2022/04/14 02:49:56;;;;;;;;;;;;;;;17.31;58.24;99974.88;2082484;28;19930;-52
2022/04/14 02:50:56;;;;;;;;;;;;;;;17.31;58.28;99976.75;2083963;28;19916;-51
2022/04/14 02:51:56;;;;;;;;;;;;;;;17.30;58.41;99975.91;2082714;28;19923;-49
2022/04/14 02:52:57;;;;;;;;;;;;;;;17.30;58.44;99975.03;2082977;28;20735;-50
2022/04/14 02:53:57;;;;;;;;;;;;;;;17.31;58.36;99983.06;2085395;28;19928;-52
2022/04/14 02:54:57;;;;;;;;;;;;;;;17.30;58.34;99973.19;2081146;28;19924;-50
2022/04/14 02:55:58;;;;;;;;;;;;;;;17.30;58.39;99975.03;2082063;28;19927;-50
2022/04/14 02:56:58;;;;;;;;;;;;;;;17.30;58.29;99977.78;2080388;28;20410;-51
2022/04/14 02:57:58;;;;;;;;;;;;;;;17.31;58.45;99983.06;2084702;28;19916;-49
2022/04/14 02:58:59;;;;;;;;;;;;;;;17.31;58.34;99979.47;2080763;28;19932;-51
2022/04/14 02:59:59;;;;;;;;;;;;;;;17.30;58.25;99980.50;2084530;28;19928;-49
2022/04/14 03:01:00;;;;;;;;;;;;;;;17.30;58.37;99977.78;2078677;28;19916;-53
2022/04/14 03:02:00;;;;;;;;;;;;;;;17.29;58.26;99976.88;2080296;28;19920;-52
2022/04/14 03:03:00;;;;;;;;;;;;;;;17.30;58.16;99980.50;2083785;28;20472;-53
2022/04/14 03:04:01;;;;;;;;;;;;;;;17.30;58.38;99980.50;2079431;28;19932;-52
2022/04/14 03:05:02;;;;;;;;;;;;;;;17.29;58.39;99976.03;2081137;28;19923;-53
2022/04/14 03:06:03;;;;;;;;;;;;;;;17.30;58.28;99980.50;2076850;28;19916;-49
2022/04/14 03:07:03;;;;;;;;;;;;;;;17.29;58.15;99973.31;2081954;28;19950;-50
2022/04/14 03:08:04;;;;;;;;;;;;;;;17.28;58.41;99977.03;2080269;28;20306;-49
2022/04/14 03:09:04;;;;;;;;;;;;;;;17.29;58.09;99978.75;2081965;28;19920;-52
2022/04/14 03:10:05;;;;;;;;;;;;;;;17.29;58.18;99976.03;2079350;28;19955;-49
2022/04/14 03:11:06;;;;;;;;;;;;;;;17.28;58.15;99977.91;2079943;28;19917;-50
2022/04/14 03:12:06;;;;;;;;;;;;;;;17.27;58.12;99973.47;2077658;28;20108;-50
2022/04/14 03:13:07;;;;;;;;;;;;;;;17.28;58.07;99975.19;2080024;28;19985;-53
2022/04/14 03:14:07;;;;;;;;;;;;;;;17.27;58.06;99976.19;2081276;28;19947;-52
2022/04/14 03:15:08;;;;;;;;;;;;;;;17.28;58.15;99975.19;2082085;28;20407;-52
2022/04/14 03:16:08;;;;;;;;;;;;;;;17.28;58.06;99968.88;2085634;28;19912;-49
2022/04/14 03:17:09;;;;;;;;;;;;;;;17.28;58.27;99969.72;2085306;28;19920;-52
2022/04/14 03:18:09;;;;;;;;;;;;;;;17.27;58.05;99968.03;2079706;28;20355;-50
2022/04/14 03:19:09;;;;;;;;;;;;;;;17.28;57.97;99966.16;2082421;28;19924;-51
2022/04/14 03:20:10;;;;;;;;;;;;;;;17.26;58.06;99970.88;2076931;28;20346;-52
2022/04/14 03:21:13;;;;;;;;;;;;;;;17.27;58.07;99973.47;2080220;28;20091;-49
2022/04/14 03:22:14;;;;;;;;;;;;;;;17.26;58.22;99970.88;2083022;28;20233;-51
2022/04/14 03:23:14;;;;;;;;;;;;;;;17.27;58.11;99975.31;2080682;28;19928;-52
2022/04/14 03:24:14;;;;;;;;;;;;;;;17.27;57.96;99970.75;2099482;28;20801;-52
2022/04/14 03:25:15;;;;;;;;;;;;;;;17.27;57.95;99969.84;2092655;28;19920;-49
2022/04/14 03:26:15;;;;;;;;;;;;;;;17.27;58.05;99969.84;2078385;28;19927;-52
2022/04/14 03:27:15;;;;;;;;;;;;;;;17.27;58.29;99969.84;2081864;28;19920;-49
2022/04/14 03:28:16;;;;;;;;;;;;;;;17.27;57.98;99972.59;2081685;28;20664;-51
2022/04/14 03:29:16;;;;;;;;;;;;;;;17.27;58.10;99975.31;2085106;28;19939;-53
2022/04/14 03:30:16;;;;;;;;;;;;;;;17.26;57.97;99969.00;2078877;28;20520;-52
2022/04/14 03:31:17;;;;;;;;;;;;;;;17.26;58.02;99962.69;2079140;28;19925;-53
2022/04/14 03:32:17;;;;;;;;;;;;;;;17.26;58.04;99963.56;2081060;28;19921;-51
2022/04/14 03:33:18;;;;;;;;;;;;;;;17.26;58.07;99965.44;2080079;28;19942;-49
2022/04/14 03:34:18;;;;;;;;;;;;;;;17.26;58.00;99965.44;2079402;28;19917;-50
2022/04/14 03:35:19;;;;;;;;;;;;;;;17.26;58.03;99969.00;2081498;28;20358;-56
2022/04/14 03:36:19;;;;;;;;;;;;;;;17.27;58.02;99969.84;2082650;28;19927;-50
2022/04/14 03:37:20;;;;;;;;;;;;;;;17.26;58.18;99968.16;2083096;28;20285;-52
2022/04/14 03:38:20;;;;;;;;;;;;;;;17.25;57.93;99967.28;2080791;28;19930;-53
2022/04/14 03:39:21;;;;;;;;;;;;;;;17.26;57.96;99968.16;2078557;28;19920;-51
2022/04/14 03:40:22;;;;;;;;;;;;;;;17.24;57.88;99962.81;2090601;28;19920;-50
2022/04/14 03:41:22;;;;;;;;;;;;;;;17.25;58.00;99964.56;2081010;28;19982;-51
2022/04/14 03:42:22;;;;;;;;;;;;;;;17.27;57.75;99975.31;2080632;28;19938;-50
2022/04/14 03:43:23;;;;;;;;;;;;;;;17.26;57.78;99968.16;2081754;28;19935;-50
2022/04/14 03:44:23;;;;;;;;;;;;;;;17.26;57.85;99966.28;2080144;28;19921;-50
2022/04/14 03:45:24;;;;;;;;;;;;;;;17.26;57.86;99968.16;2099429;28;20094;-49
2022/04/14 03:46:24;;;;;;;;;;;;;;;17.26;57.77;99970.88;2095367;28;19927;-51
2022/04/14 03:47:25;;;;;;;;;;;;;;;17.26;57.65;99969.00;2080055;28;19920;-51
2022/04/14 03:48:25;;;;;;;;;;;;;;;17.27;57.67;99964.41;2082593;28;20363;-50
2022/04/14 03:49:26;;;;;;;;;;;;;;;17.28;57.73;99966.16;2081127;28;19921;-50
2022/04/14 03:50:26;;;;;;;;;;;;;;;17.27;57.71;99969.84;2080497;28;20048;-53
2022/04/14 03:51:26;;;;;;;;;;;;;;;17.28;57.58;99967.00;2079583;28;19917;-51
2022/04/14 03:52:27;;;;;;;;;;;;;;;17.29;57.54;99962.41;2084540;28;20416;-53
2022/04/14 03:53:27;;;;;;;;;;;;;;;17.29;57.58;99962.41;2080638;28;20086;-50
2022/04/14 03:54:27;;;;;;;;;;;;;;;17.29;57.76;99968.72;2081715;28;19939;-51
2022/04/14 03:55:28;;;;;;;;;;;;;;;17.28;57.62;99967.00;2081631;28;19921;-53
2022/04/14 03:56:28;;;;;;;;;;;;;;;17.29;57.74;99967.84;2079321;28;19940;-50
2022/04/14 03:57:28;;;;;;;;;;;;;;;17.30;57.73;99964.16;2081188;28;20361;-49
2022/04/14 03:58:29;;;;;;;;;;;;;;;17.30;57.66;99964.16;2080241;28;19921;-50
2022/04/14 03:59:29;;;;;;;;;;;;;;;17.31;57.50;99963.13;2081084;28;19925;-52
2022/04/14 04:00:29;;;;;;;;;;;;;;;17.32;57.76;99962.13;2079426;28;19931;-50
2022/04/14 04:01:30;;;;;;;;;;;;;;;17.32;57.54;99959.41;2083199;28;19916;-53
2022/04/14 04:02:30;;;;;;;;;;;;;;;17.33;57.44;99963.84;2082750;28;19927;-51
2022/04/14 04:03:30;;;;;;;;;;;;;;;17.33;57.53;99961.13;2081195;28;19935;-49
2022/04/14 04:04:32;;;;;;;;;;;;;;;17.31;57.57;99954.97;2084938;28;19932;-50
2022/04/14 04:05:32;;;;;;;;;;;;;;;17.32;57.50;99962.13;2080229;28;20048;-50
2022/04/14 04:06:32;;;;;;;;;;;;;;;17.32;57.41;99964.84;2082621;28;19932;-51
2022/04/14 04:07:32;;;;;;;;;;;;;;;17.34;57.39;99968.28;2080241;28;19920;-53
2022/04/14 04:08:34;;;;;;;;;;;;;;;17.31;57.38;99960.41;2081140;28;20567;-50
2022/04/14 04:09:34;;;;;;;;;;;;;;;17.31;57.38;99963.13;2083202;28;19962;-49
2022/04/14 04:10:35;;;;;;;;;;;;;;;17.31;57.23;99954.97;2085383;28;19919;-50
2022/04/14 04:11:35;;;;;;;;;;;;;;;17.31;57.49;99957.69;2082962;28;19948;-50
2022/04/14 04:12:36;;;;;;;;;;;;;;;17.31;57.66;99955.81;2084990;28;20509;-50
2022/04/14 04:13:36;;;;;;;;;;;;;;;17.31;57.60;99954.97;2081055;28;19920;-50
2022/04/14 04:14:36;;;;;;;;;;;;;;;17.30;57.65;99958.69;2083357;28;20527;-49
2022/04/14 04:15:37;;;;;;;;;;;;;;;17.29;57.49;99960.53;2080504;28;19920;-51
2022/04/14 04:16:38;;;;;;;;;;;;;;;17.29;57.49;99962.41;2085659;28;20338;-52
2022/04/14 04:17:39;;;;;;;;;;;;;;;17.28;57.50;99966.16;2081151;28;19962;-50
2022/04/14 04:18:39;;;;;;;;;;;;;;;17.29;57.82;99962.41;2083220;28;19924;-49
2022/04/14 04:19:40;;;;;;;;;;;;;;;17.27;57.72;99969.84;2084048;28;19924;-50
2022/04/14 04:20:40;;;;;;;;;;;;;;;17.28;57.78;99960.69;2078626;28;19925;-48
2022/04/14 04:21:40;;;;;;;;;;;;;;;17.27;57.68;99965.28;2079676;28;19935;-50
2022/04/14 04:22:41;;;;;;;;;;;;;;;17.28;57.54;99966.16;2081431;28;20008;-49
2022/04/14 04:23:41;;;;;;;;;;;;;;;17.28;57.70;99971.59;2084418;28;19932;-52
2022/04/14 04:24:42;;;;;;;;;;;;;;;17.27;57.60;99962.56;2083316;28;19988;-51
2022/04/14 04:25:42;;;;;;;;;;;;;;;17.28;57.78;99963.44;2081455;28;19917;-50
2022/04/14 04:26:42;;;;;;;;;;;;;;;17.27;57.73;99969.84;2080606;28;20310;-49
2022/04/14 04:27:43;;;;;;;;;;;;;;;17.28;57.57;99972.44;2080776;28;20295;-49
2022/04/14 04:28:43;;;;;;;;;;;;;;;17.29;57.85;99978.75;2078509;28;20375;-48
2022/04/14 04:29:43;;;;;;;;;;;;;;;17.29;57.63;99973.31;2083836;28;19924;-51
2022/04/14 04:30:44;;;;;;;;;;;;;;;17.28;57.77;99977.91;2082364;28;19909;-49
2022/04/14 04:31:44;;;;;;;;;;;;;;;17.28;57.78;99980.63;2080042;28;20076;-49
2022/04/14 04:32:44;;;;;;;;;;;;;;;17.28;57.78;99972.44;2082591;28;19921;-49
2022/04/14 04:33:45;;;;;;;;;;;;;;;17.28;57.72;99972.44;2083740;28;19923;-49
2022/04/14 04:34:45;;;;;;;;;;;;;;;17.28;57.73;99982.50;2082479;28;19991;-50
2022/04/14 04:35:45;;;;;;;;;;;;;;;17.28;57.70;99977.03;2082617;28;20288;-48
2022/04/14 04:36:46;;;;;;;;;;;;;;;17.27;57.52;99978.91;2082743;28;20001;-49
2022/04/14 04:37:46;;;;;;;;;;;;;;;17.28;57.44;99971.59;2080379;28;19946;-51
2022/04/14 04:38:47;;;;;;;;;;;;;;;17.27;57.59;99980.75;2084356;28;19917;-48
2022/04/14 04:39:47;;;;;;;;;;;;;;;17.26;57.48;99979.03;2080513;28;19920;-48
2022/04/14 04:40:47;;;;;;;;;;;;;;;17.26;57.52;99979.91;2080056;28;19966;-51
2022/04/14 04:41:48;;;;;;;;;;;;;;;17.26;57.61;99984.50;2080566;28;20301;-50
2022/04/14 04:42:48;;;;;;;;;;;;;;;17.27;57.61;99983.47;2075525;28;19921;-48
2022/04/14 04:43:48;;;;;;;;;;;;;;;17.27;57.45;99980.75;2078893;28;20809;-50
2022/04/14 04:44:49;;;;;;;;;;;;;;;17.26;57.45;99985.34;2081758;28;19923;-48
2022/04/14 04:45:49;;;;;;;;;;;;;;;17.26;57.77;99979.03;2085751;28;19916;-48
2022/04/14 04:46:50;;;;;;;;;;;;;;;17.25;57.53;99983.63;2080882;28;19978;-49
2022/04/14 04:47:50;;;;;;;;;;;;;;;17.25;57.64;99982.78;2085463;28;20350;-48
2022/04/14 04:48:50;;;;;;;;;;;;;;;17.24;57.42;99987.34;2084490;28;19960;-48
2022/04/14 04:49:51;;;;;;;;;;;;;;;17.24;57.56;99984.63;2080611;28;19916;-49
2022/04/14 04:50:51;;;;;;;;;;;;;;;17.24;57.55;99981.03;2082427;28;20607;-48
2022/04/14 04:51:52;;;;;;;;;;;;;;;17.25;57.50;99985.50;2083664;28;19965;-48
2022/04/14 04:52:52;;;;;;;;;;;;;;;17.24;57.59;99972.88;2084676;28;19921;-49
2022/04/14 04:53:53;;;;;;;;;;;;;;;17.24;57.77;99986.50;2084676;28;19926;-48
2022/04/14 04:54:53;;;;;;;;;;;;;;;17.24;57.60;99986.50;2099557;28;19920;-50
2022/04/14 04:55:53;;;;;;;;;;;;;;;17.24;57.62;99978.31;2099823;28;20393;-49
2022/04/14 04:56:54;;;;;;;;;;;;;;;17.24;57.48;99981.03;2083874;28;19921;-52
2022/04/14 04:57:54;;;;;;;;;;;;;;;17.23;57.51;99979.34;2080574;28;20750;-49
2022/04/14 04:58:54;;;;;;;;;;;;;;;17.23;57.58;99977.47;2080872;28;19920;-50
2022/04/14 04:59:55;;;;;;;;;;;;;;;17.24;57.45;99981.91;2079439;28;20502;-48
2022/04/14 05:00:55;;;;;;;;;;;;;;;17.24;57.40;99976.44;2080034;28;19962;-49
2022/04/14 05:01:56;;;;;;;;;;;;;;;17.24;57.56;99981.03;2082277;28;19927;-48
2022/04/14 05:02:56;;;;;;;;;;;;;;;17.24;57.45;99976.44;2080729;28;20449;-49
2022/04/14 05:03:57;;;;;;;;;;;;;;;17.24;57.56;99981.03;2081967;28;20549;-49
2022/04/14 05:04:58;;;;;;;;;;;;;;;17.24;57.57;99981.03;2081051;28;20023;-48
2022/04/14 05:05:58;;;;;;;;;;;;;;;17.24;57.46;99975.59;2083518;28;20270;-49
2022/04/14 05:06:58;;;;;;;;;;;;;;;17.24;57.39;99981.91;2083450;28;19928;-50
2022/04/14 05:07:58;;;;;;;;;;;;;;;17.24;57.40;99981.03;2078845;28;20126;-50
2022/04/14 05:08:59;;;;;;;;;;;;;;;17.23;57.42;99977.47;2084148;28;20215;-51
2022/04/14 05:09:59;;;;;;;;;;;;;;;17.24;57.59;99987.34;2080548;28;19921;-50
2022/04/14 05:10:59;;;;;;;;;;;;;;;17.23;57.26;99979.34;2080249;28;19969;-48
2022/04/14 05:12:00;;;;;;;;;;;;;;;17.23;57.34;99980.19;2077969;28;20007;-50
2022/04/14 05:13:01;;;;;;;;;;;;;;;17.23;57.58;99982.91;2081841;28;19976;-48
2022/04/14 05:14:01;;;;;;;;;;;;;;;17.23;57.31;99979.34;2081839;28;19913;-48